Time;durP1;ratioP1;P1;durP2;ratioP2;P2;SDS_P1;SDS_P2;PMS_P1;PMS_P2;Temp;Humidity;BMP_temperature;BMP_pressure;BME280_temperature;BME280_humidity;BME280_pressure;Samples;Min_cycle;Max_cycle;Signal;HPM_P1;HPM_P2
2023/03/13 00:01:48;;;;;;;9.00;4.80;;;;;;;-3.32;74.01;95907.33;106595;1276;25462;-68
2023/03/13 00:04:17;;;;;;;6.30;4.40;;;;;;;-3.28;73.97;95909.89;106626;1275;25374;-68
2023/03/13 00:06:45;;;;;;;7.30;4.20;;;;;;;-3.23;74.23;95910.08;106692;1276;22558;-68
2023/03/13 00:09:15;;;;;;;7.20;4.40;;;;;;;-3.22;74.26;95902.55;106650;1276;22533;-68
2023/03/13 00:11:44;;;;;;;4.90;3.30;;;;;;;-3.22;74.69;95901.17;106611;1276;22529;-68
2023/03/13 00:14:12;;;;;;;7.30;4.40;;;;;;;-3.17;74.50;95895.00;106732;1276;24358;-68
2023/03/13 00:16:40;;;;;;;4.30;2.90;;;;;;;-3.19;74.59;95893.05;106604;1276;22535;-68
2023/03/13 00:19:10;;;;;;;6.00;4.50;;;;;;;-3.21;74.76;95895.02;106613;1276;22637;-68
2023/03/13 00:21:39;;;;;;;6.50;4.50;;;;;;;-3.20;75.21;95898.86;106622;1276;26615;-68
2023/03/13 00:24:10;;;;;;;8.60;4.80;;;;;;;-3.17;75.91;95899.32;106679;1276;24244;-68
2023/03/13 00:26:38;;;;;;;9.30;5.90;;;;;;;-3.12;76.12;95899.31;106618;1275;24325;-68
2023/03/13 00:29:06;;;;;;;5.30;3.20;;;;;;;-3.09;76.30;95912.35;106526;1276;23881;-68
2023/03/13 00:31:35;;;;;;;6.20;3.30;;;;;;;-3.02;75.91;95906.41;106572;1276;22528;-68
2023/03/13 00:34:03;;;;;;;4.40;3.20;;;;;;;-2.95;75.48;95900.82;106575;1276;22650;-68
2023/03/13 00:36:33;;;;;;;6.50;3.70;;;;;;;-2.97;75.21;95900.41;106572;1276;22519;-68
2023/03/13 00:39:04;;;;;;;5.50;3.10;;;;;;;-2.95;74.77;95906.01;106605;1276;24460;-68
2023/03/13 00:41:36;;;;;;;6.90;4.00;;;;;;;-2.91;74.97;95902.88;106602;1276;24218;-68
2023/03/13 00:44:05;;;;;;;9.30;5.90;;;;;;;-2.90;74.56;95891.73;106602;1276;24349;-68
2023/03/13 00:46:34;;;;;;;7.60;4.00;;;;;;;-2.92;74.41;95883.06;106644;1276;25479;-68
2023/03/13 00:49:03;;;;;;;4.70;3.40;;;;;;;-2.87;74.56;95887.73;106664;1276;25283;-68
2023/03/13 00:51:34;;;;;;;7.00;3.50;;;;;;;-2.79;74.80;95882.32;106561;1276;22561;-68
2023/03/13 00:54:03;;;;;;;6.10;3.20;;;;;;;-2.81;75.04;95884.15;106595;1254;22541;-68
2023/03/13 00:56:33;;;;;;;17.50;10.50;;;;;;;-2.91;75.97;95884.48;106663;1276;24368;-68
2023/03/13 00:59:01;;;;;;;12.40;6.40;;;;;;;-2.92;76.32;95894.41;106564;1276;24070;-68
2023/03/13 01:01:32;;;;;;;9.30;5.70;;;;;;;-2.98;75.70;95890.92;106505;1276;22743;-68
2023/03/13 01:04:07;;;;;;;9.10;4.90;;;;;;;-2.97;76.07;95884.77;106552;1276;25480;-68
2023/03/13 01:06:39;;;;;;;8.40;4.20;;;;;;;-2.92;76.38;95879.24;106589;1276;24179;-68
2023/03/13 01:09:09;;;;;;;6.80;4.10;;;;;;;-2.85;75.58;95881.09;106650;1276;22523;-69
2023/03/13 01:11:39;;;;;;;9.60;3.90;;;;;;;-2.77;75.27;95884.79;106579;1275;22653;-68
2023/03/13 01:14:11;;;;;;;10.00;4.50;;;;;;;-2.77;75.45;95887.55;106559;1276;22625;-69
2023/03/13 01:16:40;;;;;;;7.60;4.20;;;;;;;-2.77;76.30;95887.73;106608;1276;22522;-68
2023/03/13 01:19:14;;;;;;;7.80;5.10;;;;;;;-2.77;77.19;95884.95;106709;1254;22521;-68
2023/03/13 01:21:43;;;;;;;11.70;5.40;;;;;;;-2.73;76.63;95892.71;106558;1276;24180;-68
2023/03/13 01:24:12;;;;;;;9.90;5.00;;;;;;;-2.68;76.12;95894.94;106555;1276;22514;-68
2023/03/13 01:26:40;;;;;;;8.20;4.90;;;;;;;-2.65;76.20;95891.09;106609;1276;24209;-68
2023/03/13 01:29:08;;;;;;;8.70;4.90;;;;;;;-2.67;77.39;95890.52;106550;1276;22615;-68
2023/03/13 01:31:37;;;;;;;7.40;4.00;;;;;;;-2.69;77.61;95887.34;106600;1276;24429;-68
2023/03/13 01:34:09;;;;;;;11.20;5.00;;;;;;;-2.71;78.15;95889.67;106651;1276;22580;-68
2023/03/13 01:36:38;;;;;;;7.60;5.00;;;;;;;-2.72;77.35;95894.11;106625;1276;22611;-68
2023/03/13 01:39:06;;;;;;;9.70;5.50;;;;;;;-2.70;77.33;95885.59;106625;1276;24123;-68
2023/03/13 01:41:36;;;;;;;7.20;4.70;;;;;;;-2.69;77.16;95891.30;106560;1276;22649;-68
2023/03/13 01:44:05;;;;;;;10.00;5.60;;;;;;;-2.68;77.18;95896.69;106626;1276;24418;-68
2023/03/13 01:46:35;;;;;;;8.70;4.70;;;;;;;-2.66;77.62;95899.84;106552;1276;24250;-68
2023/03/13 01:49:28;;;;;;;5.60;3.70;;;;;;;-2.66;77.47;95903.30;106580;1276;24349;-68
2023/03/13 01:52:18;;;;;;;7.70;4.50;;;;;;;-2.64;76.88;95901.98;106593;1276;25369;-68
2023/03/13 01:55:14;;;;;;;7.00;3.70;;;;;;;-2.66;77.68;95895.54;106649;1276;24387;-68
2023/03/13 01:57:51;;;;;;;5.10;3.50;;;;;;;-2.66;77.92;95896.91;106680;1276;24259;-68
2023/03/13 02:00:28;;;;;;;6.80;3.50;;;;;;;-2.64;76.93;95897.70;106633;1276;25442;-68
2023/03/13 02:03:00;;;;;;;6.70;3.80;;;;;;;-2.62;76.81;95895.55;106500;1276;25383;-68
2023/03/13 02:05:30;;;;;;;9.20;5.60;;;;;;;-2.61;77.03;95902.27;106587;1263;22523;-68
2023/03/13 02:08:06;;;;;;;13.00;6.60;;;;;;;-2.62;76.75;95904.84;106649;1276;24438;-68
2023/03/13 02:10:42;;;;;;;10.30;6.70;;;;;;;-2.61;76.58;95903.31;106697;1276;25319;-68
2023/03/13 02:13:14;;;;;;;9.40;5.50;;;;;;;-2.64;76.66;95905.45;106577;1276;22536;-68
2023/03/13 02:15:43;;;;;;;6.10;3.60;;;;;;;-2.64;77.33;95905.79;106639;1276;24038;-68
2023/03/13 02:18:12;;;;;;;5.30;3.30;;;;;;;-2.68;77.02;95902.17;106543;1276;22962;-68
2023/03/13 02:20:41;;;;;;;7.20;4.60;;;;;;;-2.73;77.26;95893.59;106721;1276;22533;-68
2023/03/13 02:23:38;;;;;;;7.90;3.50;;;;;;;-2.72;77.45;95900.65;106642;1276;25414;-68
2023/03/13 02:26:06;;;;;;;5.80;3.70;;;;;;;-2.71;77.47;95902.94;106576;1276;22510;-68
2023/03/13 02:28:38;;;;;;;8.20;3.90;;;;;;;-2.70;78.03;95899.20;106586;1276;22523;-68
2023/03/13 02:31:10;;;;;;;6.90;3.50;;;;;;;-2.66;77.51;95902.10;106594;1276;24247;-68
2023/03/13 02:33:41;;;;;;;6.10;3.60;;;;;;;-2.60;77.36;95901.63;106599;1276;23112;-68
2023/03/13 02:36:15;;;;;;;5.30;3.10;;;;;;;-2.62;76.63;95896.58;106547;1276;24047;-69
2023/03/13 02:38:51;;;;;;;7.50;3.20;;;;;;;-2.57;76.95;95897.95;106577;1276;22621;-68
2023/03/13 02:41:21;;;;;;;4.50;2.70;;;;;;;-2.50;76.83;95902.00;106607;1276;22522;-68
2023/03/13 02:43:50;;;;;;;4.30;3.10;;;;;;;-2.44;76.79;95911.66;106578;1276;22640;-68
2023/03/13 02:46:19;;;;;;;6.20;2.80;;;;;;;-2.38;76.39;95915.66;106557;1276;24034;-68
2023/03/13 02:48:54;;;;;;;3.60;2.50;;;;;;;-2.33;76.79;95909.30;106640;1276;25259;-68
2023/03/13 02:51:29;;;;;;;4.60;2.50;;;;;;;-2.25;76.76;95903.39;106589;1276;25236;-68
2023/03/13 02:54:09;;;;;;;9.50;4.40;;;;;;;-2.22;76.31;95904.88;106611;1276;24250;-68
2023/03/13 02:56:40;;;;;;;20.60;11.00;;;;;;;-2.27;76.73;95895.40;106487;1276;25626;-68
2023/03/13 02:59:09;;;;;;;33.70;17.00;;;;;;;-2.24;77.16;95894.30;106613;1276;22877;-68
2023/03/13 03:01:39;;;;;;;25.00;11.90;;;;;;;-2.16;77.11;95899.91;106685;1276;22513;-68
2023/03/13 03:04:07;;;;;;;5.00;2.90;;;;;;;-2.12;76.35;95899.19;106588;1276;23273;-68
2023/03/13 03:06:36;;;;;;;21.10;11.00;;;;;;;-2.12;76.10;95899.86;106533;1276;22629;-68
2023/03/13 03:09:04;;;;;;;17.50;9.80;;;;;;;-2.07;76.13;95909.70;106695;1276;22571;-68
2023/03/13 03:11:35;;;;;;;16.20;9.30;;;;;;;-2.10;76.11;95911.84;106621;1276;24367;-68
2023/03/13 03:14:08;;;;;;;11.70;6.40;;;;;;;-2.13;76.48;95913.79;106601;1276;24399;-68
2023/03/13 03:16:39;;;;;;;4.80;2.80;;;;;;;-2.17;76.22;95913.15;106676;1276;22528;-68
2023/03/13 03:19:09;;;;;;;4.10;2.70;;;;;;;-2.14;76.27;95916.18;106743;1276;22757;-68
2023/03/13 03:21:38;;;;;;;5.40;2.70;;;;;;;-2.10;75.88;95914.08;106771;1276;25248;-68
2023/03/13 03:24:07;;;;;;;5.20;2.90;;;;;;;-2.08;75.73;95915.03;106997;1276;25399;-68
2023/03/13 03:26:36;;;;;;;4.00;2.50;;;;;;;-2.06;75.45;95924.75;106732;1276;22871;-68
2023/03/13 03:29:09;;;;;;;3.00;2.10;;;;;;;-2.03;75.27;95922.80;106604;1275;25493;-68
2023/03/13 03:31:39;;;;;;;3.50;2.60;;;;;;;-2.00;75.16;95923.39;106627;1276;22592;-68
2023/03/13 03:34:07;;;;;;;4.80;2.70;;;;;;;-1.99;75.30;95926.36;106631;1276;24206;-68
2023/03/13 03:36:36;;;;;;;3.90;2.10;;;;;;;-2.00;75.13;95928.73;106984;1276;22631;-68
2023/03/13 03:39:04;;;;;;;6.40;3.80;;;;;;;-2.08;75.80;95926.55;107031;1276;24187;-68
2023/03/13 03:41:32;;;;;;;7.90;5.00;;;;;;;-2.16;76.55;95928.70;106991;1276;24330;-68
2023/03/13 03:44:00;;;;;;;8.80;4.50;;;;;;;-2.20;77.45;95934.07;106801;1276;22518;-68
2023/03/13 03:46:36;;;;;;;8.40;3.90;;;;;;;-2.21;77.41;95936.81;106559;1276;24213;-68
2023/03/13 03:49:04;;;;;;;6.30;3.40;;;;;;;-2.21;77.02;95939.23;106611;1276;22526;-68
2023/03/13 03:51:33;;;;;;;6.10;3.10;;;;;;;-2.21;77.19;95930.92;106588;1276;24271;-68
2023/03/13 03:54:01;;;;;;;6.50;3.80;;;;;;;-2.26;77.58;95930.05;106639;1276;22778;-68
2023/03/13 03:56:30;;;;;;;12.10;6.30;;;;;;;-2.27;77.84;95923.98;106596;1276;22517;-69
2023/03/13 03:58:59;;;;;;;11.20;6.60;;;;;;;-2.25;78.51;95913.73;106624;1276;24377;-69
2023/03/13 04:01:41;;;;;;;9.80;5.30;;;;;;;-2.23;78.21;95912.25;106602;1276;22729;-68
2023/03/13 04:04:10;;;;;;;29.10;15.30;;;;;;;-2.23;78.47;95911.91;106552;1275;22576;-69
2023/03/13 04:06:40;;;;;;;9.50;5.40;;;;;;;-2.23;78.57;95911.55;106643;1276;24400;-69
2023/03/13 04:09:09;;;;;;;8.50;5.20;;;;;;;-2.22;77.91;95913.00;106596;1276;25603;-69
2023/03/13 04:11:38;;;;;;;6.50;4.50;;;;;;;-2.22;77.76;95908.66;106665;1276;25452;-68
2023/03/13 04:14:08;;;;;;;10.30;5.50;;;;;;;-2.23;78.09;95910.70;106984;1276;25306;-68
2023/03/13 04:16:36;;;;;;;9.70;5.80;;;;;;;-2.25;78.22;95912.36;106616;1276;25320;-68
2023/03/13 04:19:05;;;;;;;8.50;4.70;;;;;;;-2.22;78.04;95911.78;106518;1276;22510;-69
2023/03/13 04:21:33;;;;;;;7.60;4.60;;;;;;;-2.21;77.70;95904.39;106587;1275;22516;-68
2023/03/13 04:24:06;;;;;;;6.70;4.10;;;;;;;-2.12;77.63;95901.92;106633;1276;22652;-68
2023/03/13 04:26:35;;;;;;;6.40;3.30;;;;;;;-2.04;77.10;95906.00;106631;1276;22528;-68
2023/03/13 04:29:05;;;;;;;8.00;4.40;;;;;;;-2.00;76.86;95908.23;106626;1276;22608;-69
2023/03/13 04:31:54;;;;;;;28.80;13.90;;;;;;;-1.98;77.26;95909.86;106563;1276;22749;-69
2023/03/13 04:34:38;;;;;;;10.30;5.70;;;;;;;-1.92;77.33;95913.84;106633;1276;22507;-69
2023/03/13 04:37:37;;;;;;;7.50;5.10;;;;;;;-1.81;77.15;95917.16;106584;1276;24249;-68
2023/03/13 04:40:37;;;;;;;7.00;4.70;;;;;;;-1.73;76.35;95921.89;106357;1276;22521;-69
2023/03/13 04:43:29;;;;;;;7.60;4.60;;;;;;;-1.62;75.90;95926.05;106581;1276;22523;-69
2023/03/13 04:46:24;;;;;;;7.00;4.10;;;;;;;-1.57;75.67;95923.98;106520;1276;25748;-68
2023/03/13 04:49:16;;;;;;;8.60;4.30;;;;;;;-1.59;75.32;95928.59;106559;1276;22635;-68
2023/03/13 04:52:09;;;;;;;5.60;4.00;;;;;;;-1.58;75.54;95926.89;106584;1276;22531;-68
2023/03/13 04:54:56;;;;;;;8.30;4.60;;;;;;;-1.54;75.45;95931.66;106655;1276;22529;-68
2023/03/13 04:57:49;;;;;;;44.00;24.00;;;;;;;-1.49;75.17;95936.00;106675;1276;22519;-69
2023/03/13 05:00:42;;;;;;;28.60;14.90;;;;;;;-1.50;75.42;95937.68;106617;1276;22769;-69
2023/03/13 05:03:15;;;;;;;16.00;9.40;;;;;;;-1.47;75.91;95941.76;106617;1276;22515;-69
2023/03/13 05:06:07;;;;;;;9.50;6.30;;;;;;;-1.37;75.42;95931.55;106344;1276;22637;-69
2023/03/13 05:08:54;;;;;;;10.00;5.50;;;;;;;-1.30;74.74;95928.33;106644;1276;22866;-69
2023/03/13 05:11:30;;;;;;;13.00;7.50;;;;;;;-1.27;74.44;95926.52;106628;1276;22636;-69
2023/03/13 05:14:22;;;;;;;21.70;10.80;;;;;;;-1.23;74.34;95921.98;106575;1276;22517;-70
2023/03/13 05:17:11;;;;;;;24.40;10.90;;;;;;;-1.24;73.81;95921.61;106595;1276;22599;-69
2023/03/13 05:20:10;;;;;;;27.30;13.10;;;;;;;-1.26;73.59;95920.67;106487;1276;22574;-69
2023/03/13 05:22:48;;;;;;;28.70;18.10;;;;;;;-1.29;73.67;95920.73;106581;1276;22516;-69
2023/03/13 05:25:31;;;;;;;20.00;11.60;;;;;;;-1.32;73.96;95922.38;106644;1276;22595;-69
2023/03/13 05:28:18;;;;;;;15.30;8.20;;;;;;;-1.36;74.00;95927.26;106595;1276;22516;-69
2023/03/13 05:30:49;;;;;;;21.50;10.70;;;;;;;-1.41;73.88;95940.90;106581;1276;22526;-69
2023/03/13 05:33:20;;;;;;;21.80;10.00;;;;;;;-1.48;73.95;95948.77;106553;1276;25450;-69
2023/03/13 05:36:09;;;;;;;21.90;11.20;;;;;;;-1.58;74.16;95960.38;106498;1275;24498;-69
2023/03/13 05:38:57;;;;;;;19.50;12.10;;;;;;;-1.59;74.33;95959.47;106374;1276;23883;-69
2023/03/13 05:41:41;;;;;;;15.90;9.10;;;;;;;-1.62;74.08;95957.30;106448;1275;22516;-69
2023/03/13 05:44:24;;;;;;;14.70;9.00;;;;;;;-1.64;74.04;95944.63;106617;1276;24253;-69
2023/03/13 05:47:12;;;;;;;12.60;7.40;;;;;;;-1.62;74.27;95952.30;106352;1276;22636;-69
2023/03/13 05:50:13;;;;;;;14.10;7.90;;;;;;;-1.58;75.00;95953.64;106378;1276;22803;-69
2023/03/13 05:53:03;;;;;;;17.30;8.80;;;;;;;-1.47;74.88;95965.20;106601;1276;25388;-71
2023/03/13 05:55:50;;;;;;;19.40;11.60;;;;;;;-1.31;74.90;95967.13;106589;1276;23881;-76
2023/03/13 05:58:37;;;;;;;21.80;12.40;;;;;;;-1.15;75.20;95968.52;106682;1276;23007;-70
2023/03/13 06:01:32;;;;;;;17.40;9.90;;;;;;;-0.95;75.13;95974.13;106422;1276;22564;-66
2023/03/13 06:04:12;;;;;;;14.00;9.70;;;;;;;-0.81;73.99;95979.08;106584;1276;25411;-65
2023/03/13 06:06:41;;;;;;;16.10;10.90;;;;;;;-0.67;73.72;95979.15;106650;1276;22630;-67
2023/03/13 06:09:10;;;;;;;15.90;10.40;;;;;;;-0.57;73.20;95981.03;106616;1276;22814;-63
2023/03/13 06:11:40;;;;;;;17.00;9.80;;;;;;;-0.48;72.79;95982.84;106634;1276;24804;-68
2023/03/13 06:14:08;;;;;;;14.40;8.60;;;;;;;-0.39;72.78;95983.62;106583;1276;25405;-65
2023/03/13 06:16:43;;;;;;;16.50;8.70;;;;;;;-0.29;71.73;95977.34;106515;1276;24386;-66
2023/03/13 06:19:15;;;;;;;18.30;10.90;;;;;;;-0.27;71.29;95973.95;106722;1276;25318;-66
2023/03/13 06:21:44;;;;;;;20.40;11.60;;;;;;;-0.24;71.56;95976.30;106344;1276;22674;-67
2023/03/13 06:24:12;;;;;;;17.10;9.60;;;;;;;-0.17;71.76;95982.36;106447;1276;24366;-67
2023/03/13 06:26:40;;;;;;;13.70;8.50;;;;;;;-0.10;71.56;95977.88;106775;1276;22643;-68
2023/03/13 06:29:10;;;;;;;12.00;7.90;;;;;;;-0.05;70.70;95972.16;106513;1276;22530;-65
2023/03/13 06:31:38;;;;;;;15.50;7.60;;;;;;;0.01;70.47;95967.66;106510;1276;25261;-67
2023/03/13 06:34:10;;;;;;;15.30;9.40;;;;;;;0.09;70.60;95972.38;106619;1276;24119;-69
2023/03/13 06:36:38;;;;;;;21.60;12.70;;;;;;;0.18;70.51;95971.95;106842;1276;25195;-68
2023/03/13 06:39:07;;;;;;;25.30;14.10;;;;;;;0.26;70.39;95963.49;106872;1276;22658;-64
2023/03/13 06:41:35;;;;;;;118.50;45.40;;;;;;;0.32;70.25;95963.84;106916;1276;24381;-67
2023/03/13 06:44:04;;;;;;;81.70;32.60;;;;;;;0.39;70.01;95964.18;106925;1276;22530;-67
2023/03/13 06:46:32;;;;;;;50.90;23.00;;;;;;;0.46;69.94;95965.76;106945;1276;23795;-70
2023/03/13 06:49:03;;;;;;;30.30;16.60;;;;;;;0.52;70.18;95962.96;106876;1276;22643;-68
2023/03/13 06:51:32;;;;;;;32.10;14.50;;;;;;;0.58;69.75;95958.27;106532;1276;22532;-68
2023/03/13 06:54:02;;;;;;;27.20;14.50;;;;;;;0.65;69.69;95961.91;106655;1276;25252;-69
2023/03/13 06:56:31;;;;;;;25.20;13.40;;;;;;;0.69;69.66;95954.23;106618;1276;25599;-67
2023/03/13 06:58:59;;;;;;;20.80;12.50;;;;;;;0.75;69.70;95954.55;106658;1264;22647;-69
2023/03/13 07:01:27;;;;;;;30.30;15.40;;;;;;;0.81;69.59;95957.13;106576;1276;22529;-68
2023/03/13 07:03:55;;;;;;;30.00;16.40;;;;;;;0.88;69.20;95958.15;106846;1276;22637;-68
2023/03/13 07:06:25;;;;;;;28.00;14.80;;;;;;;0.95;69.18;95955.55;106937;1276;22651;-68
2023/03/13 07:08:54;;;;;;;35.70;19.00;;;;;;;1.03;69.28;95950.38;106688;1276;22519;-66
2023/03/13 07:11:22;;;;;;;33.70;17.30;;;;;;;1.14;69.22;95950.80;106584;1276;22626;-68
2023/03/13 07:13:53;;;;;;;26.70;15.00;;;;;;;1.25;69.15;95949.33;106541;1276;22528;-64
2023/03/13 07:16:36;;;;;;;23.10;12.40;;;;;;;1.34;67.69;95948.32;106933;1276;25377;-66
2023/03/13 07:19:05;;;;;;;32.80;20.40;;;;;;;1.41;67.30;95945.70;106426;1272;22523;-67
2023/03/13 07:21:33;;;;;;;27.00;17.90;;;;;;;1.50;67.21;95949.89;106535;1277;22673;-67
2023/03/13 07:24:02;;;;;;;16.50;10.90;;;;;;;1.60;66.16;95947.67;106716;1275;25350;-66
2023/03/13 07:26:30;;;;;;;15.20;10.00;;;;;;;1.68;65.80;95950.12;106783;1263;25268;-68
2023/03/13 07:28:58;;;;;;;14.20;10.00;;;;;;;1.79;65.71;95953.64;106828;1276;24385;-66
2023/03/13 07:31:28;;;;;;;12.10;7.20;;;;;;;1.86;64.60;95953.79;106566;1276;24322;-68
2023/03/13 07:33:57;;;;;;;12.60;7.30;;;;;;;1.88;63.45;95954.51;106607;1276;22513;-65
2023/03/13 07:36:25;;;;;;;11.70;7.40;;;;;;;1.91;63.62;95954.41;106607;1276;24228;-66
2023/03/13 07:38:53;;;;;;;14.40;8.50;;;;;;;2.01;64.64;95956.52;106760;1276;23006;-67
2023/03/13 07:41:22;;;;;;;15.40;9.40;;;;;;;2.14;64.54;95954.16;106898;1276;22963;-68
2023/03/13 07:43:50;;;;;;;17.70;9.20;;;;;;;2.26;62.89;95953.88;106810;1276;22526;-69
2023/03/13 07:46:19;;;;;;;12.10;7.60;;;;;;;2.39;63.00;95947.70;106904;1276;24387;-71
2023/03/13 07:48:47;;;;;;;11.70;6.80;;;;;;;2.52;61.95;95941.16;106952;1276;25322;-69
2023/03/13 07:51:21;;;;;;;11.60;5.60;;;;;;;2.67;62.75;95939.36;106773;1276;22520;-72
2023/03/13 07:54:03;;;;;;;12.50;6.40;;;;;;;2.87;61.72;95938.81;106570;1276;24421;-68
2023/03/13 07:56:32;;;;;;;8.70;4.50;;;;;;;3.07;60.65;95929.92;106591;1276;22934;-69
2023/03/13 07:59:00;;;;;;;5.60;4.00;;;;;;;3.30;60.72;95929.24;106603;1276;22527;-68
2023/03/13 08:01:29;;;;;;;5.70;3.50;;;;;;;3.47;58.30;95927.05;106733;1276;24349;-69
2023/03/13 08:04:01;;;;;;;5.70;3.50;;;;;;;3.55;58.85;95931.15;106571;1260;24423;-69
2023/03/13 08:06:31;;;;;;;8.90;4.20;;;;;;;3.67;59.76;95933.93;106538;1253;23051;-69
2023/03/13 08:09:03;;;;;;;40.50;26.10;;;;;;;3.92;60.64;95930.42;106612;1276;22731;-70
2023/03/13 08:11:31;;;;;;;481.90;264.00;;;;;;;4.16;60.70;95927.05;106487;1276;24244;-68
2023/03/13 08:13:59;;;;;;;29.50;20.50;;;;;;;4.41;60.35;95932.73;106919;1276;22522;-69
2023/03/13 08:16:33;;;;;;;13.70;9.90;;;;;;;4.55;58.72;95932.52;106848;1276;22593;-68
2023/03/13 08:19:04;;;;;;;10.40;6.80;;;;;;;4.65;58.52;95925.66;106698;1276;22524;-69
2023/03/13 08:21:35;;;;;;;10.40;9.00;;;;;;;4.72;57.87;95922.77;106426;1276;22503;-71
2023/03/13 08:24:07;;;;;;;13.90;12.50;;;;;;;4.84;57.58;95927.73;106625;1276;23693;-68
2023/03/13 08:26:39;;;;;;;8.00;4.30;;;;;;;4.94;56.76;95932.73;106543;1270;25258;-67
2023/03/13 08:29:10;;;;;;;9.20;7.10;;;;;;;5.00;55.98;95927.73;106480;1269;25214;-70
2023/03/13 08:31:47;;;;;;;5.90;4.70;;;;;;;5.18;56.72;95929.08;106593;1270;22640;-69
2023/03/13 08:34:16;;;;;;;7.20;4.40;;;;;;;5.37;55.95;95927.66;106455;1270;22633;-70
2023/03/13 08:36:45;;;;;;;5.90;3.70;;;;;;;5.54;55.76;95928.27;106749;1270;25275;-67
2023/03/13 08:39:16;;;;;;;5.30;3.50;;;;;;;5.70;54.83;95930.81;106603;1276;22516;-66
2023/03/13 08:41:45;;;;;;;4.10;2.90;;;;;;;5.85;55.13;95924.96;106714;1270;25322;-69
2023/03/13 08:44:18;;;;;;;4.70;2.90;;;;;;;5.93;53.40;95917.17;106561;1276;24288;-67
2023/03/13 08:46:48;;;;;;;3.30;2.60;;;;;;;5.96;53.39;95917.72;106488;1276;22591;-68
2023/03/13 08:49:16;;;;;;;3.50;2.60;;;;;;;6.03;53.51;95915.83;106556;1276;24221;-67
2023/03/13 08:51:45;;;;;;;3.00;2.30;;;;;;;6.09;52.47;95918.30;106518;1275;25317;-68
2023/03/13 08:54:13;;;;;;;5.00;3.30;;;;;;;6.17;52.52;95917.44;106464;1276;22517;-67
2023/03/13 08:56:42;;;;;;;2.70;2.30;;;;;;;6.24;52.50;95914.51;106534;1276;25439;-67
2023/03/13 08:59:11;;;;;;;3.20;2.60;;;;;;;6.32;51.47;95912.27;106429;1263;25217;-67
2023/03/13 09:01:40;;;;;;;3.20;2.40;;;;;;;6.40;50.84;95912.63;106613;1272;22525;-65
2023/03/13 09:04:08;;;;;;;3.20;2.60;;;;;;;6.50;50.46;95910.20;106473;1270;25464;-66
2023/03/13 09:06:38;;;;;;;4.70;2.70;;;;;;;6.73;49.87;95903.96;106477;1272;22524;-67
2023/03/13 09:09:07;;;;;;;5.40;3.50;;;;;;;6.86;49.79;95899.08;106547;1272;25303;-66
2023/03/13 09:11:38;;;;;;;8.10;6.50;;;;;;;7.03;49.03;95896.10;106525;1270;22547;-66
2023/03/13 09:14:07;;;;;;;6.20;4.20;;;;;;;7.14;49.66;95892.25;106561;1272;22531;-67
2023/03/13 09:16:35;;;;;;;10.40;5.60;;;;;;;7.31;49.33;95896.10;106611;1272;22464;-68
2023/03/13 09:19:04;;;;;;;5.90;3.70;;;;;;;7.41;49.66;95898.52;106632;1273;22524;-67
2023/03/13 09:21:34;;;;;;;8.70;6.40;;;;;;;7.45;49.66;95902.89;106614;1276;22523;-64
2023/03/13 09:24:03;;;;;;;10.60;8.70;;;;;;;7.53;49.56;95900.45;106616;1276;22517;-68
2023/03/13 09:26:31;;;;;;;24.80;18.00;;;;;;;7.54;49.59;95895.19;106594;1270;22582;-65
2023/03/13 09:29:00;;;;;;;12.40;9.00;;;;;;;7.54;48.91;95899.39;106439;1270;24330;-65
2023/03/13 09:31:30;;;;;;;11.60;8.40;;;;;;;7.50;48.67;95897.46;106395;1276;24211;-67
2023/03/13 09:34:00;;;;;;;15.30;9.20;;;;;;;7.50;48.91;95897.82;106498;1275;22533;-66
2023/03/13 09:36:29;;;;;;;20.00;14.00;;;;;;;7.50;49.07;95894.31;106492;1271;25302;-67
2023/03/13 09:38:59;;;;;;;9.00;6.50;;;;;;;7.44;48.60;95889.77;106433;1276;25492;-68
2023/03/13 09:41:30;;;;;;;12.30;7.80;;;;;;;7.54;49.85;95886.27;106682;1276;22510;-67
2023/03/13 09:43:58;;;;;;;6.60;5.10;;;;;;;7.79;50.09;95878.66;106660;1276;25489;-68
2023/03/13 09:46:50;;;;;;;6.50;4.60;;;;;;;7.98;49.61;95867.90;106433;1276;22516;-66
2023/03/13 09:49:40;;;;;;;8.10;4.80;;;;;;;8.13;47.66;95867.31;106567;1276;25696;-67
2023/03/13 09:52:16;;;;;;;10.10;4.80;;;;;;;8.27;47.77;95862.88;106591;1276;22521;-69
2023/03/13 09:54:55;;;;;;;7.60;5.70;;;;;;;8.37;47.52;95861.60;106607;1273;25340;-66
2023/03/13 09:57:34;;;;;;;6.50;4.50;;;;;;;8.55;48.47;95862.02;106646;1276;22532;-66
2023/03/13 10:00:21;;;;;;;7.10;4.80;;;;;;;8.71;47.71;95857.02;106501;1274;25396;-66
2023/03/13 10:03:06;;;;;;;6.50;4.70;;;;;;;8.83;46.74;95855.16;106596;1277;26498;-65
2023/03/13 10:05:36;;;;;;;6.40;4.30;;;;;;;8.91;45.23;95853.00;106400;1277;22629;-67
2023/03/13 10:08:25;;;;;;;5.70;4.20;;;;;;;9.03;45.35;95846.58;106627;1277;24075;-65
2023/03/13 10:11:02;;;;;;;4.60;3.20;;;;;;;9.19;44.13;95848.20;106715;1277;23033;-64
2023/03/13 10:13:49;;;;;;;6.90;3.70;;;;;;;9.35;44.50;95841.55;106779;1277;22646;-64
2023/03/13 10:16:31;;;;;;;4.30;3.70;;;;;;;9.52;44.32;95835.05;106727;1277;25459;-64
2023/03/13 10:19:18;;;;;;;4.60;3.50;;;;;;;9.61;42.45;95830.92;106779;1277;24353;-64
2023/03/13 10:21:51;;;;;;;3.60;2.60;;;;;;;9.64;43.18;95827.21;106470;1277;24215;-65
2023/03/13 10:24:53;;;;;;;5.10;4.10;;;;;;;9.69;43.62;95821.17;106548;1277;24359;-64
2023/03/13 10:27:21;;;;;;;3.60;3.20;;;;;;;9.88;42.57;95818.48;106431;1277;25492;-64
2023/03/13 10:29:50;;;;;;;3.70;2.70;;;;;;;10.05;42.64;95817.04;106443;1277;22643;-64
2023/03/13 10:32:19;;;;;;;2.80;2.30;;;;;;;10.14;41.13;95816.58;105743;1269;672930;-64
2023/03/13 10:34:48;;;;;;;5.40;4.60;;;;;;;10.13;41.73;95817.30;106608;1277;22632;-64
2023/03/13 10:37:23;;;;;;;3.10;2.70;;;;;;;10.23;41.69;95814.16;106512;1277;25449;-64
2023/03/13 10:39:52;;;;;;;3.90;3.10;;;;;;;10.33;41.29;95808.61;106577;1263;22642;-64
2023/03/13 10:42:27;;;;;;;5.10;3.90;;;;;;;10.46;41.80;95803.33;106421;1277;22631;-64
2023/03/13 10:44:58;;;;;;;5.20;3.80;;;;;;;10.58;41.68;95798.94;106417;1275;22660;-64
2023/03/13 10:47:31;;;;;;;4.30;2.80;;;;;;;10.66;41.37;95793.16;106585;1277;22620;-64
2023/03/13 10:50:01;;;;;;;4.50;3.20;;;;;;;10.78;41.18;95792.63;106510;1277;25402;-64
2023/03/13 10:52:43;;;;;;;3.70;2.20;;;;;;;10.88;40.26;95783.14;106574;1277;26631;-64
2023/03/13 10:55:17;;;;;;;4.00;2.70;;;;;;;11.00;40.83;95786.80;106550;1277;24180;-65
2023/03/13 10:58:01;;;;;;;2.80;1.90;;;;;;;11.18;40.66;95782.27;106565;1275;22534;-66
2023/03/13 11:00:40;;;;;;;2.80;2.50;;;;;;;11.41;41.01;95776.90;106427;1277;22521;-64
2023/03/13 11:03:18;;;;;;;3.00;2.20;;;;;;;11.73;40.29;95774.00;106555;1277;22605;-65
2023/03/13 11:05:56;;;;;;;3.00;2.20;;;;;;;12.12;39.96;95773.56;106537;1278;26513;-65
2023/03/13 11:08:26;;;;;;;4.00;2.90;;;;;;;12.52;39.67;95767.91;106406;1277;26590;-63
2023/03/13 11:10:56;;;;;;;4.40;2.90;;;;;;;12.93;37.90;95760.22;106553;1277;25330;-63
2023/03/13 11:13:27;;;;;;;4.60;3.10;;;;;;;13.06;35.79;95755.63;106530;1277;22756;-63
2023/03/13 11:16:16;;;;;;;4.50;2.30;;;;;;;13.32;36.96;95750.39;106629;1277;25221;-63
2023/03/13 11:19:06;;;;;;;4.70;3.40;;;;;;;13.45;36.25;95748.27;106565;1277;23277;-63
2023/03/13 11:22:07;;;;;;;6.90;3.30;;;;;;;13.79;35.67;95744.85;106535;1277;25395;-64
2023/03/13 11:24:49;;;;;;;3.70;2.60;;;;;;;14.19;35.11;95741.02;106552;1277;22639;-64
2023/03/13 11:27:35;;;;;;;3.90;2.50;;;;;;;14.47;35.19;95736.80;106615;1277;25307;-64
2023/03/13 11:30:16;;;;;;;3.60;2.40;;;;;;;14.97;35.83;95732.00;106534;1277;22524;-64
2023/03/13 11:33:01;;;;;;;3.20;2.10;;;;;;;15.31;34.44;95725.53;106567;1277;24478;-64
2023/03/13 11:35:49;;;;;;;4.50;2.30;;;;;;;15.75;34.32;95721.69;106546;1277;25613;-64
2023/03/13 11:38:32;;;;;;;4.20;3.00;;;;;;;16.07;33.74;95722.44;106525;1277;22538;-64
2023/03/13 11:41:25;;;;;;;2.90;1.60;;;;;;;16.32;33.14;95717.58;106373;1277;25323;-64
2023/03/13 11:44:23;;;;;;;3.20;2.50;;;;;;;16.60;33.35;95711.85;106529;1266;22645;-64
2023/03/13 11:46:51;;;;;;;3.00;1.90;;;;;;;17.11;34.13;95708.86;106545;1277;22800;-64
2023/03/13 11:49:47;;;;;;;3.30;1.90;;;;;;;17.12;30.65;95713.09;106528;1277;22528;-64
2023/03/13 11:52:22;;;;;;;5.40;2.50;;;;;;;17.10;30.78;95707.13;106578;1277;24455;-64
2023/03/13 11:55:13;;;;;;;4.60;3.10;;;;;;;17.33;30.88;95700.83;106429;1277;24393;-64
2023/03/13 11:58:00;;;;;;;2.70;2.00;;;;;;;17.42;31.62;95694.73;106546;1277;24294;-63